createdAt,value
2023-01-19T00:37:08.495Z,0.85
2023-01-19T00:39:41.478Z,0.84
2023-01-19T00:42:32.744Z,0.87
2023-01-19T00:45:07.606Z,0.90
2023-01-19T00:47:39.636Z,0.94
2023-01-19T00:50:13.976Z,0.98
2023-01-19T00:52:44.890Z,1.00
2023-01-19T00:55:20.260Z,1.03
2023-01-19T00:57:52.380Z,1.03
2023-01-19T01:00:27.789Z,1.02
2023-01-19T01:04:27.433Z,1.03
2023-01-19T01:07:56.410Z,1.02
2023-01-19T01:11:24.872Z,0.99
2023-01-19T01:14:01.618Z,0.96
2023-01-19T01:16:37.405Z,0.94
2023-01-19T01:19:08.622Z,0.93
2023-01-19T01:21:39.873Z,0.93
2023-01-19T01:24:13.668Z,0.93
2023-01-19T01:26:47.799Z,0.93
2023-01-19T01:29:19.246Z,0.93
2023-01-19T01:31:55.448Z,0.92
2023-01-19T01:34:26.226Z,0.92
2023-01-19T01:36:58.876Z,0.92
2023-01-19T01:39:32.056Z,0.91
2023-01-19T01:42:16.286Z,0.91
2023-01-19T01:44:52.320Z,0.92
2023-01-19T01:47:31.119Z,0.92
2023-01-19T01:50:18.966Z,0.89
2023-01-19T01:53:07.520Z,0.88
2023-01-19T01:55:45.748Z,0.89
2023-01-19T01:58:20.098Z,0.91
2023-01-19T02:01:12.679Z,0.91
2023-01-19T02:03:44.385Z,0.90
2023-01-19T02:06:17.894Z,0.87
2023-01-19T02:09:17.525Z,0.85
2023-01-19T02:12:06.822Z,0.84
2023-01-19T02:14:42.745Z,0.83
2023-01-19T02:17:18.851Z,0.83
2023-01-19T02:19:52.537Z,0.84
2023-01-19T02:22:42.283Z,0.84
2023-01-19T02:25:14.553Z,0.84
2023-01-19T02:27:44.399Z,0.84
2023-01-19T02:30:23.460Z,0.84
2023-01-19T02:32:55.936Z,0.82
2023-01-19T02:35:28.841Z,0.80
2023-01-19T02:38:01.706Z,0.79
2023-01-19T02:40:32.587Z,0.76
2023-01-19T02:43:09.373Z,0.75
2023-01-19T02:45:43.969Z,0.75
2023-01-19T02:48:18.181Z,0.73
2023-01-19T02:50:51.062Z,0.71
2023-01-19T02:53:35.055Z,0.69
2023-01-19T02:56:29.191Z,0.66
2023-01-19T02:59:25.772Z,0.65
2023-01-19T03:02:35.078Z,0.67
2023-01-19T03:05:20.131Z,0.70
2023-01-19T03:08:04.890Z,0.75
2023-01-19T03:10:56.487Z,0.85
2023-01-19T03:13:32.992Z,0.95
2023-01-19T03:16:33.309Z,1.02
2023-01-19T03:19:11.708Z,1.06
2023-01-19T03:21:58.899Z,1.09
2023-01-19T03:24:43.485Z,1.12
2023-01-19T03:27:33.798Z,1.15
2023-01-19T03:30:19.120Z,1.18
2023-01-19T03:32:54.906Z,1.14
2023-01-19T03:35:31.705Z,1.04
2023-01-19T03:38:09.091Z,0.97
2023-01-19T03:40:41.933Z,0.98
2023-01-19T03:43:17.069Z,1.01
2023-01-19T03:45:49.842Z,1.04
2023-01-19T03:48:23.252Z,1.07
2023-01-19T03:50:57.014Z,1.11
2023-01-19T03:53:27.424Z,1.15
2023-01-19T03:56:00.582Z,1.20
2023-01-19T03:58:35.606Z,1.22
2023-01-19T04:01:06.238Z,1.19
2023-01-19T04:04:53.576Z,1.09
2023-01-19T04:07:29.736Z,1.08
2023-01-19T04:10:05.814Z,1.08
2023-01-19T04:12:39.311Z,1.06
2023-01-19T04:15:14.211Z,1.04
2023-01-19T04:17:44.270Z,1.01
2023-01-19T04:20:19.037Z,0.92
2023-01-19T04:22:56.612Z,0.84
2023-01-19T04:25:47.222Z,0.78
2023-01-19T04:28:22.235Z,0.77
2023-01-19T04:31:01.884Z,0.76
2023-01-19T04:33:37.428Z,0.73
2023-01-19T04:36:13.097Z,0.73
2023-01-19T04:38:45.411Z,0.76
2023-01-19T04:41:20.187Z,0.77
2023-01-19T04:43:52.771Z,0.76
2023-01-19T04:46:26.343Z,0.75
2023-01-19T04:49:02.191Z,0.74
2023-01-19T04:51:36.197Z,0.82
2023-01-19T04:54:09.658Z,0.88
2023-01-19T04:56:47.419Z,0.85
2023-01-19T04:59:22.097Z,0.77
2023-01-19T05:02:23.354Z,0.71
2023-01-19T05:04:59.164Z,0.68
2023-01-19T05:07:34.210Z,0.68
2023-01-19T05:10:04.946Z,0.68
2023-01-19T05:12:38.868Z,0.67
2023-01-19T05:15:32.439Z,0.67
2023-01-19T05:18:07.020Z,0.67
2023-01-19T05:20:59.139Z,0.67
2023-01-19T05:24:06.509Z,0.68
2023-01-19T05:31:32.606Z,0.73
2023-01-19T05:34:42.722Z,0.75
2023-01-19T05:37:35.857Z,0.76
2023-01-19T05:40:12.321Z,0.75
2023-01-19T05:43:43.237Z,0.74
2023-01-19T05:47:29.990Z,0.77
2023-01-19T05:51:20.668Z,0.82
2023-01-19T05:54:32.593Z,0.89
2023-01-19T05:57:42.255Z,0.88
2023-01-19T06:01:06.120Z,0.87
2023-01-19T06:04:07.727Z,0.83
2023-01-19T06:07:53.943Z,0.83
2023-01-19T06:11:36.397Z,0.87
2023-01-19T06:14:18.965Z,0.91
2023-01-19T06:16:56.711Z,0.94
2023-01-19T06:20:10.097Z,0.96
2023-01-19T06:24:09.032Z,0.94
2023-01-19T06:27:51.815Z,0.92
2023-01-19T06:31:36.021Z,0.93
2023-01-19T06:35:03.373Z,0.94
2023-01-19T06:38:50.148Z,0.94
2023-01-19T06:42:03.188Z,0.94
2023-01-19T06:45:47.742Z,0.92
2023-01-19T06:49:00.099Z,0.90
2023-01-19T06:53:00.768Z,0.91
2023-01-19T06:56:35.219Z,0.93
2023-01-19T07:00:22.589Z,0.98
2023-01-19T07:03:30.541Z,0.97
2023-01-19T07:10:17.296Z,0.99
2023-01-19T07:28:22.497Z,1.06
2023-01-19T07:31:55.370Z,1.04
2023-01-19T07:35:21.846Z,1.01
2023-01-19T07:38:52.063Z,1.00
2023-01-19T07:42:23.446Z,1.02
2023-01-19T07:49:10.817Z,1.04
2023-01-19T07:53:23.722Z,1.04
2023-01-19T07:57:23.194Z,1.07
2023-01-19T08:17:58.767Z,1.36
2023-01-19T09:45:24.961Z,1.78
2023-01-19T09:49:19.882Z,1.73
2023-01-19T09:52:20.483Z,1.71
2023-01-19T09:55:30.275Z,1.68
2023-01-19T10:05:45.424Z,1.64
2023-01-19T10:24:16.645Z,1.66
2023-01-19T11:21:29.191Z,2.12
2023-01-19T11:28:55.385Z,2.10
2023-01-19T11:35:58.844Z,2.07
2023-01-19T11:39:27.243Z,1.99
2023-01-19T11:49:33.943Z,2.06
2023-01-19T11:53:33.995Z,2.12
2023-01-19T12:01:20.820Z,2.09
2023-01-19T12:05:06.038Z,2.04
2023-01-19T12:08:36.491Z,2.01
2023-01-19T12:15:14.089Z,2.08
2023-01-19T12:18:58.618Z,2.13
2023-01-19T12:32:43.874Z,2.05
2023-01-19T12:35:53.976Z,1.99
2023-01-19T12:39:16.167Z,1.92
2023-01-19T12:42:34.451Z,1.89
2023-01-19T12:45:26.451Z,1.88
2023-01-19T12:47:57.149Z,1.89
2023-01-19T12:50:57.947Z,1.90
2023-01-19T12:53:34.813Z,1.89
2023-01-19T12:56:44.161Z,1.86
2023-01-19T12:59:28.018Z,1.82
2023-01-19T13:02:19.346Z,1.82
2023-01-19T13:05:24.433Z,1.84
2023-01-19T13:08:03.182Z,1.84
2023-01-19T13:11:15.943Z,1.85
2023-01-19T13:13:59.413Z,1.86
2023-01-19T13:16:29.919Z,1.83
2023-01-19T13:19:08.836Z,1.81
2023-01-19T13:21:44.417Z,1.79
2023-01-19T13:24:22.756Z,1.79
2023-01-19T13:27:00.583Z,1.76
2023-01-19T13:29:38.914Z,1.74
2023-01-19T13:32:19.967Z,1.77
2023-01-19T13:34:55.053Z,1.79
2023-01-19T13:37:37.847Z,1.81
2023-01-19T13:40:17.373Z,1.80
2023-01-19T13:42:49.811Z,1.79
2023-01-19T13:45:40.421Z,1.78
2023-01-19T13:48:18.016Z,1.74
2023-01-19T13:51:05.627Z,1.71
2023-01-19T13:53:38.645Z,1.71
2023-01-19T13:56:18.873Z,1.73
2023-01-19T13:59:11.539Z,1.72
2023-01-19T14:01:48.529Z,1.70
2023-01-19T14:04:33.564Z,1.71
2023-01-19T14:07:07.573Z,1.72
2023-01-19T14:09:37.522Z,1.71
2023-01-19T14:12:12.569Z,1.71
2023-01-19T14:14:49.817Z,1.67
2023-01-19T14:17:25.529Z,1.63
2023-01-19T14:19:58.439Z,1.60
2023-01-19T14:22:44.708Z,1.58
2023-01-19T14:25:33.928Z,1.58
2023-01-19T14:28:44.379Z,1.59
2023-01-19T14:31:24.546Z,1.60
2023-01-19T14:33:59.203Z,1.63
2023-01-19T14:36:38.570Z,1.65
2023-01-19T14:39:21.602Z,1.68
2023-01-19T14:41:54.134Z,1.72
2023-01-19T14:44:36.568Z,1.70
2023-01-19T14:47:10.529Z,1.67
2023-01-19T14:49:47.352Z,1.64
2023-01-19T14:52:31.428Z,1.60
2023-01-19T14:55:07.234Z,1.57
2023-01-19T14:57:39.577Z,1.52
2023-01-19T15:00:18.013Z,1.53
2023-01-19T15:02:50.873Z,1.55
2023-01-19T15:05:22.288Z,1.58
2023-01-19T15:07:55.830Z,1.63
2023-01-19T15:10:35.276Z,1.63
2023-01-19T15:13:19.439Z,1.63
2023-01-19T15:15:50.280Z,1.64
2023-01-19T15:18:25.978Z,1.61
2023-01-19T15:21:03.125Z,1.56
2023-01-19T15:23:34.978Z,1.56
2023-01-19T15:26:07.435Z,1.57
2023-01-19T15:28:37.704Z,1.58
2023-01-19T15:31:08.304Z,1.55
2023-01-19T15:33:38.507Z,1.52
2023-01-19T15:36:18.574Z,1.47
2023-01-19T15:38:51.344Z,1.43
2023-01-19T15:41:26.938Z,1.38
2023-01-19T15:43:58.826Z,1.35
2023-01-19T15:46:30.766Z,1.34
2023-01-19T15:49:02.618Z,1.35
2023-01-19T15:51:33.770Z,1.36
2023-01-19T15:54:05.424Z,1.38
2023-01-19T15:56:39.615Z,1.39
2023-01-19T15:59:11.545Z,1.40
2023-01-19T16:01:44.339Z,1.38
2023-01-19T16:04:18.649Z,1.37
2023-01-19T16:06:54.841Z,1.37
2023-01-19T16:10:07.298Z,1.35
2023-01-19T16:22:42.286Z,1.45
2023-01-19T16:26:02.302Z,1.47
2023-01-19T16:28:36.963Z,1.43
2023-01-19T16:31:19.627Z,1.41
2023-01-19T16:33:52.810Z,1.40
2023-01-19T16:36:24.326Z,1.41
2023-01-19T16:38:59.754Z,1.43
2023-01-19T16:41:53.311Z,1.42
2023-01-19T16:44:30.482Z,1.43
2023-01-19T16:47:10.529Z,1.43
2023-01-19T16:49:42.431Z,1.41
2023-01-19T16:52:17.441Z,1.43
2023-01-19T16:55:01.642Z,1.44
2023-01-19T16:57:35.685Z,1.47
2023-01-19T17:00:14.249Z,1.50
2023-01-19T17:02:53.554Z,1.56
2023-01-19T17:05:27.451Z,1.59
2023-01-19T17:07:58.721Z,1.64
2023-01-19T17:10:40.441Z,1.65
2023-01-19T17:13:14.569Z,1.67
2023-01-19T17:15:45.001Z,1.73
2023-01-19T17:18:21.281Z,1.77
2023-01-19T17:20:55.184Z,1.78
2023-01-19T17:23:29.409Z,1.76
2023-01-19T17:26:00.298Z,1.78
2023-01-19T17:28:33.482Z,1.80
2023-01-19T17:31:14.252Z,1.79
2023-01-19T17:33:47.663Z,1.78
2023-01-19T17:36:23.364Z,1.78
2023-01-19T17:39:00.050Z,1.79
2023-01-19T17:41:41.055Z,1.82
2023-01-19T17:44:14.787Z,1.87
2023-01-19T17:46:45.618Z,1.91
2023-01-19T17:49:18.136Z,1.97
2023-01-19T17:51:52.713Z,1.96
2023-01-19T17:54:33.975Z,1.93
2023-01-19T17:57:05.262Z,1.88
2023-01-19T17:59:35.993Z,1.86
2023-01-19T18:02:10.598Z,1.85
2023-01-19T18:04:41.606Z,1.80
2023-01-19T18:07:13.191Z,1.75
2023-01-19T18:09:51.151Z,1.71
2023-01-19T18:12:26.446Z,1.66
2023-01-19T18:14:58.631Z,1.63
2023-01-19T18:17:34.214Z,1.62
2023-01-19T18:20:06.791Z,1.58
2023-01-19T18:22:41.311Z,1.54
2023-01-19T18:25:21.901Z,1.52
2023-01-19T18:27:56.975Z,1.54
2023-01-19T18:30:32.184Z,1.55
2023-01-19T18:33:07.249Z,1.58
2023-01-19T19:01:54.530Z,1.89
2023-01-19T19:30:57.340Z,1.69
2023-01-19T19:34:47.922Z,1.65
2023-01-19T19:45:43.511Z,1.67
2023-01-19T19:56:03.137Z,1.67
2023-01-19T20:21:15.161Z,1.45
2023-01-19T20:28:04.999Z,1.48
2023-01-19T20:32:04.898Z,1.42
2023-01-19T20:35:32.000Z,1.40
2023-01-19T20:43:00.393Z,1.27
2023-01-19T20:46:55.378Z,1.24
2023-01-19T20:57:15.528Z,1.32
2023-01-19T21:11:03.838Z,1.45
2023-01-19T21:14:46.729Z,1.49
2023-01-19T21:18:24.757Z,1.51
2023-01-19T21:22:04.249Z,1.51
2023-01-19T21:25:41.894Z,1.51
2023-01-19T21:33:09.711Z,1.57
2023-01-19T21:39:56.187Z,1.63
2023-01-19T21:43:28.133Z,1.65
2023-01-19T21:47:12.302Z,1.66
2023-01-19T21:50:56.454Z,1.70
2023-01-19T21:54:47.527Z,1.69
2023-01-19T22:02:37.905Z,1.67
2023-01-19T22:05:53.809Z,1.64
2023-01-19T22:09:45.060Z,1.66
2023-01-19T22:13:33.066Z,1.63
2023-01-19T22:16:56.362Z,1.60
2023-01-19T22:20:40.486Z,1.57
2023-01-19T22:24:28.609Z,1.57
2023-01-19T22:28:28.438Z,1.60
2023-01-19T22:31:56.502Z,1.66
2023-01-19T22:39:09.298Z,1.65
2023-01-19T22:42:48.072Z,1.68
2023-01-19T22:49:24.196Z,1.72
2023-01-19T22:56:45.249Z,1.77
2023-01-19T23:00:02.440Z,1.75
2023-01-19T23:03:46.013Z,1.72
2023-01-19T23:07:15.573Z,1.70
2023-01-19T23:10:47.126Z,1.65
2023-01-19T23:14:31.023Z,1.55
2023-01-19T23:21:27.024Z,1.47
2023-01-19T23:25:17.911Z,1.46
2023-01-19T23:29:02.101Z,1.41
2023-01-19T23:32:41.804Z,1.37
2023-01-19T23:39:39.390Z,1.45
2023-01-19T23:43:20.509Z,1.46
2023-01-19T23:47:12.333Z,1.46
2023-01-19T23:54:14.721Z,1.48
